createdAt,value
2023-04-26T00:02:22.230Z,9.02
2023-04-26T00:05:02.515Z,10.65
2023-04-26T00:07:32.255Z,12.90
2023-04-26T00:10:01.650Z,7.45
2023-04-26T00:12:31.141Z,10.18
2023-04-26T00:15:00.590Z,7.00
2023-04-26T00:17:30.167Z,7.00
2023-04-26T00:19:59.992Z,9.20
2023-04-26T00:22:29.977Z,8.45
2023-04-26T00:24:59.392Z,11.90
2023-04-26T00:27:28.841Z,9.10
2023-04-26T00:29:58.407Z,7.18
2023-04-26T00:32:28.056Z,12.57
2023-04-26T00:34:57.540Z,11.07
2023-04-26T00:37:27.054Z,8.23
2023-04-26T00:39:57.465Z,9.55
2023-04-26T00:42:26.984Z,8.73
2023-04-26T00:44:57.789Z,8.63
2023-04-26T00:47:32.712Z,10.07
2023-04-26T00:50:02.547Z,9.60
2023-04-26T00:52:32.481Z,9.82
2023-04-26T00:55:02.125Z,9.60
2023-04-26T00:57:31.741Z,8.57
2023-04-26T01:00:01.213Z,12.38
2023-04-26T01:02:30.911Z,10.10
2023-04-26T01:05:00.508Z,7.97
2023-04-26T01:07:29.948Z,12.35
2023-04-26T01:10:00.758Z,9.43
2023-04-26T01:12:31.939Z,11.18
2023-04-26T01:15:02.775Z,8.50
2023-04-26T01:17:32.351Z,6.75
2023-04-26T01:20:01.756Z,8.48
2023-04-26T01:22:35.357Z,10.35
2023-04-26T01:25:09.021Z,13.00
2023-04-26T01:27:38.786Z,11.13
2023-04-26T01:30:08.602Z,12.20
2023-04-26T01:32:38.319Z,10.82
2023-04-26T01:35:08.530Z,7.85
2023-04-26T01:37:37.966Z,10.43
2023-04-26T01:40:09.951Z,10.98
2023-04-26T01:42:39.881Z,8.15
2023-04-26T01:45:09.590Z,12.68
2023-04-26T01:47:57.373Z,12.35
2023-04-26T01:50:27.429Z,11.75
2023-04-26T01:52:56.837Z,15.43
2023-04-26T01:55:26.260Z,8.43
2023-04-26T01:57:55.697Z,7.57
2023-04-26T02:00:25.279Z,10.52
2023-04-26T02:02:57.404Z,9.40
2023-04-26T02:05:27.099Z,10.93
2023-04-26T02:07:56.774Z,9.68
2023-04-26T02:10:26.236Z,10.63
2023-04-26T02:12:55.709Z,14.18
2023-04-26T02:15:25.227Z,13.13
2023-04-26T02:17:55.954Z,11.77
2023-04-26T02:20:25.588Z,12.52
2023-04-26T02:22:56.695Z,13.43
2023-04-26T02:25:26.168Z,16.00
2023-04-26T02:27:57.002Z,11.70
2023-04-26T02:30:26.444Z,11.30
2023-04-26T02:32:59.229Z,16.83
2023-04-26T02:35:28.823Z,8.88
2023-04-26T02:37:58.308Z,8.23
2023-04-26T02:40:28.380Z,10.35
2023-04-26T02:42:58.537Z,13.00
2023-04-26T02:45:28.207Z,13.35
2023-04-26T02:47:57.801Z,9.65
2023-04-26T02:50:27.384Z,14.15
2023-04-26T02:52:56.940Z,13.23
2023-04-26T02:55:26.394Z,11.07
2023-04-26T02:57:56.127Z,13.30
2023-04-26T03:00:28.036Z,10.23
2023-04-26T03:02:58.148Z,16.45
2023-04-26T03:05:27.795Z,9.68
2023-04-26T03:07:57.332Z,11.07
2023-04-26T03:10:26.787Z,9.13
2023-04-26T03:12:56.251Z,11.88
2023-04-26T03:15:25.960Z,13.60
2023-04-26T03:17:55.509Z,11.43
2023-04-26T03:20:25.246Z,16.52
2023-04-26T03:22:54.935Z,10.40
2023-04-26T03:25:24.851Z,10.48
2023-04-26T03:27:55.631Z,12.32
2023-04-26T03:30:28.737Z,14.73
2023-04-26T03:32:59.149Z,13.30
2023-04-26T03:35:28.654Z,13.65
2023-04-26T03:37:58.799Z,13.10
2023-04-26T03:40:29.491Z,13.77
2023-04-26T03:42:58.930Z,13.77
2023-04-26T03:45:28.752Z,11.10
2023-04-26T03:47:58.118Z,12.63
2023-04-26T03:50:27.596Z,19.10
2023-04-26T03:52:57.050Z,12.38
2023-04-26T03:55:26.485Z,11.70
2023-04-26T03:57:56.769Z,13.38
2023-04-26T04:00:26.561Z,10.35
2023-04-26T04:02:56.392Z,13.30
2023-04-26T04:05:27.845Z,16.25
2023-04-26T04:07:57.495Z,10.40
2023-04-26T04:10:27.484Z,15.40
2023-04-26T04:12:57.556Z,17.65
2023-04-26T04:15:27.191Z,14.77
2023-04-26T04:17:57.467Z,11.05
2023-04-26T04:20:26.965Z,12.20
2023-04-26T04:22:58.902Z,12.23
2023-04-26T04:25:28.342Z,12.98
2023-04-26T04:28:02.152Z,18.08
2023-04-26T04:30:32.263Z,14.73
2023-04-26T04:33:03.513Z,11.40
2023-04-26T04:35:34.297Z,15.13
2023-04-26T04:38:07.035Z,13.65
2023-04-26T04:40:37.350Z,16.25
2023-04-26T04:43:06.887Z,12.32
2023-04-26T04:45:37.384Z,13.68
2023-04-26T04:48:09.549Z,13.27
2023-04-26T04:50:39.726Z,12.73
2023-04-26T04:53:09.183Z,16.40
2023-04-26T04:55:39.431Z,15.57
2023-04-26T04:58:09.112Z,15.80
2023-04-26T05:00:38.933Z,15.77
2023-04-26T05:03:22.982Z,14.70
2023-04-26T05:05:53.465Z,18.20
2023-04-26T05:08:23.020Z,16.65
2023-04-26T05:10:53.560Z,12.50
2023-04-26T05:13:23.070Z,13.73
2023-04-26T05:15:52.498Z,19.95
2023-04-26T05:18:22.001Z,18.73
2023-04-26T05:20:51.792Z,14.70
2023-04-26T05:23:21.414Z,15.27
2023-04-26T05:25:51.216Z,21.73
2023-04-26T05:28:48.816Z,17.42
2023-04-26T05:31:24.621Z,17.27
2023-04-26T05:34:26.635Z,17.30
2023-04-26T05:36:59.455Z,24.33
2023-04-26T05:39:30.153Z,24.88
2023-04-26T05:41:59.517Z,22.00
2023-04-26T05:44:29.156Z,16.95
2023-04-26T05:46:59.064Z,14.60
2023-04-26T05:49:29.734Z,19.38
2023-04-26T05:52:01.766Z,14.27
2023-04-26T05:54:31.255Z,15.57
2023-04-26T05:57:00.773Z,21.23
2023-04-26T05:59:33.069Z,17.02
2023-04-26T06:02:02.918Z,18.08
2023-04-26T06:04:32.780Z,14.75
2023-04-26T06:07:14.934Z,17.27
2023-04-26T06:09:44.318Z,15.82
2023-04-26T06:12:13.738Z,13.65
2023-04-26T06:14:46.516Z,13.65
2023-04-26T06:17:19.969Z,21.25
2023-04-26T06:19:49.483Z,15.95
2023-04-26T06:22:18.855Z,20.65
2023-04-26T06:24:48.254Z,16.23
2023-04-26T06:27:17.930Z,18.08
2023-04-26T06:29:51.909Z,17.60
2023-04-26T06:32:22.407Z,16.92
2023-04-26T06:34:51.914Z,18.20
2023-04-26T06:37:21.593Z,18.25
2023-04-26T06:39:51.589Z,21.13
2023-04-26T06:42:23.115Z,18.77
2023-04-26T06:45:08.940Z,13.93
2023-04-26T06:47:38.844Z,17.30
2023-04-26T06:50:08.564Z,19.00
2023-04-26T06:52:38.309Z,13.02
2023-04-26T06:55:07.932Z,14.00
2023-04-26T06:57:37.556Z,16.15
2023-04-26T07:00:07.282Z,15.82
2023-04-26T07:02:36.826Z,13.32
2023-04-26T07:05:07.150Z,14.75
2023-04-26T07:07:36.657Z,13.48
2023-04-26T07:10:06.533Z,13.27
2023-04-26T07:12:35.958Z,14.18
2023-04-26T07:15:06.810Z,14.00
2023-04-26T07:17:36.605Z,15.88
2023-04-26T07:20:06.427Z,13.68
2023-04-26T07:22:35.972Z,10.43
2023-04-26T07:25:05.531Z,16.10
2023-04-26T07:27:34.979Z,15.63
2023-04-26T07:30:05.405Z,11.60
2023-04-26T07:32:35.037Z,19.08
2023-04-26T07:35:04.760Z,11.50
2023-04-26T07:37:34.249Z,12.27
2023-04-26T07:40:05.157Z,10.30
2023-04-26T07:42:34.576Z,7.53
2023-04-26T07:45:04.049Z,16.88
2023-04-26T07:47:33.518Z,9.57
2023-04-26T07:50:02.888Z,11.45
2023-04-26T07:52:32.252Z,10.68
2023-04-26T07:55:01.940Z,7.78
2023-04-26T07:57:31.399Z,11.48
2023-04-26T08:00:01.004Z,9.13
2023-04-26T08:02:43.405Z,11.23
2023-04-26T08:05:14.515Z,7.55
2023-04-26T08:07:44.698Z,8.52
2023-04-26T08:10:14.196Z,7.88
2023-04-26T08:12:43.938Z,7.68
2023-04-26T08:15:13.687Z,7.68
2023-04-26T08:17:43.208Z,7.00
2023-04-26T08:20:13.222Z,7.15
2023-04-26T08:22:42.659Z,7.45
2023-04-26T08:25:13.277Z,6.15
2023-04-26T08:27:45.094Z,5.63
2023-04-26T08:30:14.814Z,9.82
2023-04-26T08:32:44.323Z,5.47
2023-04-26T08:35:13.831Z,8.55
2023-04-26T08:37:43.365Z,5.95
2023-04-26T08:40:13.095Z,6.53
2023-04-26T08:42:44.420Z,9.00
2023-04-26T08:45:14.260Z,11.35
2023-04-26T08:47:47.887Z,8.93
2023-04-26T08:50:17.927Z,9.52
2023-04-26T08:52:47.393Z,4.55
2023-04-26T08:55:17.619Z,7.18
2023-04-26T08:57:49.161Z,5.30
2023-04-26T09:00:22.361Z,13.77
2023-04-26T09:02:53.187Z,7.30
2023-04-26T09:05:24.920Z,5.88
2023-04-26T09:07:56.476Z,5.10
2023-04-26T09:10:26.517Z,3.53
2023-04-26T09:12:56.736Z,6.68
2023-04-26T09:15:27.245Z,6.15
2023-04-26T09:17:56.803Z,4.78
2023-04-26T09:20:28.989Z,4.57
2023-04-26T09:23:09.292Z,6.50
2023-04-26T09:25:39.161Z,3.58
2023-04-26T09:28:22.577Z,5.93
2023-04-26T09:30:52.191Z,5.07
2023-04-26T09:33:21.835Z,4.22
2023-04-26T09:35:51.280Z,6.32
2023-04-26T09:38:21.101Z,3.22
2023-04-26T09:40:54.942Z,5.22
2023-04-26T09:43:24.996Z,5.53
2023-04-26T09:45:55.708Z,3.67
2023-04-26T09:48:26.300Z,5.97
2023-04-26T09:50:57.495Z,3.83
2023-04-26T09:53:41.308Z,9.93
2023-04-26T09:56:15.201Z,10.25
2023-04-26T09:58:50.669Z,7.32
2023-04-26T10:01:21.577Z,5.57
2023-04-26T10:03:51.743Z,6.18
2023-04-26T10:06:21.403Z,3.80
2023-04-26T10:08:51.036Z,6.93
2023-04-26T10:11:21.012Z,7.25
2023-04-26T10:13:52.998Z,5.15
2023-04-26T10:16:24.104Z,6.28
2023-04-26T10:18:53.763Z,8.23
2023-04-26T10:21:25.551Z,6.43
2023-04-26T10:23:55.197Z,7.38
2023-04-26T10:26:46.273Z,5.30
2023-04-26T10:29:15.675Z,7.72
2023-04-26T10:32:04.094Z,5.05
2023-04-26T10:34:34.785Z,5.20
2023-04-26T10:37:13.702Z,9.85
2023-04-26T10:39:45.620Z,5.95
2023-04-26T10:42:28.755Z,7.00
2023-04-26T10:44:58.928Z,8.55
2023-04-26T10:47:38.954Z,5.53
2023-04-26T10:50:14.398Z,4.05
2023-04-26T10:53:04.000Z,4.68
2023-04-26T10:55:41.904Z,3.90
2023-04-26T10:58:30.953Z,4.82
2023-04-26T11:01:23.536Z,4.88
2023-04-26T11:04:12.169Z,5.97
2023-04-26T11:06:58.179Z,4.47
2023-04-26T11:09:38.298Z,5.50
2023-04-26T11:12:17.340Z,6.13
2023-04-26T11:14:46.963Z,3.85
2023-04-26T11:17:16.633Z,4.82
2023-04-26T11:19:49.840Z,6.72
2023-04-26T11:22:19.401Z,3.65
2023-04-26T11:24:48.914Z,3.88
2023-04-26T11:27:18.400Z,4.22
2023-04-26T11:29:47.765Z,4.70
2023-04-26T11:32:17.253Z,4.20
2023-04-26T11:34:50.882Z,3.88
2023-04-26T11:37:20.385Z,4.15
2023-04-26T11:39:51.427Z,5.45
2023-04-26T11:42:20.908Z,4.35
2023-04-26T11:44:53.644Z,3.35
2023-04-26T11:47:23.767Z,6.13
2023-04-26T11:49:53.241Z,4.97
2023-04-26T11:52:22.691Z,4.63
2023-04-26T11:54:52.073Z,3.63
2023-04-26T11:57:22.769Z,8.05
2023-04-26T11:59:52.315Z,5.07
2023-04-26T12:02:21.888Z,7.15
2023-04-26T12:05:01.733Z,4.95
2023-04-26T12:07:35.403Z,8.63
2023-04-26T12:10:18.489Z,8.52
2023-04-26T12:12:51.213Z,7.10
2023-04-26T12:15:21.456Z,4.18
2023-04-26T12:17:54.736Z,3.65
2023-04-26T12:20:35.711Z,7.70
2023-04-26T12:23:08.324Z,7.50
2023-04-26T12:25:38.593Z,4.85
2023-04-26T12:28:12.475Z,7.43
2023-04-26T12:30:42.809Z,5.68
2023-04-26T12:33:17.637Z,3.28
2023-04-26T12:35:47.886Z,8.57
2023-04-26T12:38:17.318Z,8.13
2023-04-26T12:40:46.963Z,6.15
2023-04-26T12:43:20.054Z,8.60
2023-04-26T12:45:49.504Z,7.00
2023-04-26T12:48:19.009Z,10.05
2023-04-26T12:50:50.087Z,5.40
2023-04-26T12:53:20.734Z,4.50
2023-04-26T12:55:50.188Z,4.78
2023-04-26T12:58:19.713Z,7.20
2023-04-26T13:00:49.296Z,8.05
2023-04-26T13:03:18.908Z,6.63
2023-04-26T13:05:48.555Z,5.10
2023-04-26T13:08:17.945Z,8.23
2023-04-26T13:10:47.388Z,7.00
2023-04-26T13:13:16.912Z,3.92
2023-04-26T13:15:46.936Z,5.07
2023-04-26T13:18:19.631Z,7.07
2023-04-26T13:20:49.222Z,9.73
2023-04-26T13:23:18.649Z,5.60
2023-04-26T13:25:48.008Z,7.30
2023-04-26T13:28:17.410Z,5.38
2023-04-26T13:30:46.822Z,8.32
2023-04-26T13:33:16.527Z,6.97
2023-04-26T13:35:46.148Z,3.78
2023-04-26T13:38:16.503Z,6.43
2023-04-26T13:40:46.698Z,4.30
2023-04-26T13:43:18.948Z,4.43
2023-04-26T13:45:48.410Z,5.50
2023-04-26T13:48:18.109Z,8.70
2023-04-26T13:50:47.766Z,5.22
2023-04-26T13:53:17.204Z,7.55
2023-04-26T13:55:46.803Z,6.97
2023-04-26T13:58:16.724Z,7.47
2023-04-26T14:00:49.011Z,5.05
2023-04-26T14:03:18.702Z,8.73
2023-04-26T14:05:48.235Z,5.15
2023-04-26T14:08:17.977Z,8.45
2023-04-26T14:10:47.738Z,7.45
2023-04-26T14:13:17.691Z,6.50
2023-04-26T14:15:47.198Z,6.65
2023-04-26T14:18:16.978Z,5.15
2023-04-26T14:20:46.998Z,4.15
2023-04-26T14:23:17.198Z,5.93
2023-04-26T14:25:46.656Z,6.13
2023-04-26T14:28:16.690Z,6.75
2023-04-26T14:30:46.453Z,11.98
2023-04-26T14:33:16.282Z,7.00
2023-04-26T14:35:45.773Z,6.45
2023-04-26T14:38:15.354Z,6.72
2023-04-26T14:40:45.286Z,6.10
2023-04-26T14:43:14.654Z,7.40
2023-04-26T14:45:47.368Z,7.82
2023-04-26T14:48:17.202Z,7.55
2023-04-26T14:50:46.769Z,12.50
2023-04-26T14:53:16.556Z,5.38
2023-04-26T14:55:45.952Z,6.82
2023-04-26T14:58:20.144Z,5.93
2023-04-26T15:00:51.618Z,5.25
2023-04-26T15:03:21.440Z,7.75
2023-04-26T15:05:50.901Z,7.68
2023-04-26T15:08:20.551Z,6.22
2023-04-26T15:10:50.210Z,6.95
2023-04-26T15:13:19.911Z,5.22
2023-04-26T15:15:49.437Z,8.65
2023-04-26T15:18:18.847Z,5.07
2023-04-26T15:20:48.270Z,8.18
2023-04-26T15:23:17.768Z,7.05
2023-04-26T15:25:47.551Z,4.35
2023-04-26T15:28:17.878Z,5.35
2023-04-26T15:30:48.023Z,8.02
2023-04-26T15:33:19.681Z,4.78
2023-04-26T15:35:49.366Z,8.00
2023-04-26T15:38:18.721Z,6.05
2023-04-26T15:40:48.205Z,5.45
2023-04-26T15:43:17.750Z,5.53
2023-04-26T15:45:47.313Z,7.40
2023-04-26T15:48:16.731Z,7.78
2023-04-26T15:50:46.396Z,6.10
2023-04-26T15:53:16.523Z,9.48
2023-04-26T15:55:46.098Z,6.22
2023-04-26T15:58:15.495Z,6.72
2023-04-26T16:00:44.921Z,8.20
2023-04-26T16:03:14.487Z,5.18
2023-04-26T16:05:43.995Z,8.38
2023-04-26T16:08:14.826Z,6.43
2023-04-26T16:10:47.062Z,9.95
2023-04-26T16:13:17.348Z,6.53
2023-04-26T16:15:47.588Z,7.45
2023-04-26T16:18:18.036Z,5.45
2023-04-26T16:20:47.459Z,4.72
2023-04-26T16:23:17.185Z,5.03
2023-04-26T16:25:47.143Z,6.32
2023-04-26T16:28:16.528Z,7.22
2023-04-26T16:30:45.882Z,7.85
2023-04-26T16:33:15.353Z,6.72
2023-04-26T16:35:44.714Z,7.57
2023-04-26T16:38:14.066Z,9.73
2023-04-26T16:40:43.548Z,9.80
2023-04-26T16:43:14.506Z,6.80
2023-04-26T16:45:44.154Z,6.47
2023-04-26T16:48:13.669Z,7.00
2023-04-26T16:50:43.076Z,5.82
2023-04-26T16:53:12.440Z,10.35
2023-04-26T16:55:41.806Z,8.70
2023-04-26T16:58:11.570Z,5.53
2023-04-26T17:00:41.020Z,6.55
2023-04-26T17:03:10.702Z,4.20
2023-04-26T17:05:44.207Z,6.82
2023-04-26T17:08:13.729Z,9.60
2023-04-26T17:10:43.579Z,7.80
2023-04-26T17:13:13.656Z,7.40
2023-04-26T17:15:44.041Z,8.13
2023-04-26T17:18:13.741Z,7.70
2023-04-26T17:20:43.127Z,8.10
2023-04-26T17:23:12.614Z,5.53
2023-04-26T17:25:42.124Z,6.18
2023-04-26T17:28:11.541Z,5.32
2023-04-26T17:30:40.931Z,7.50
2023-04-26T17:33:10.579Z,8.73
2023-04-26T17:35:40.092Z,8.48
2023-04-26T17:38:09.504Z,5.95
2023-04-26T17:40:38.923Z,4.53
2023-04-26T17:43:08.282Z,8.20
2023-04-26T17:45:37.669Z,7.32
2023-04-26T17:48:11.188Z,8.50
2023-04-26T17:50:40.716Z,8.32
2023-04-26T17:53:10.988Z,7.22
2023-04-26T17:55:40.773Z,6.35
2023-04-26T17:58:10.163Z,6.40
2023-04-26T18:00:39.504Z,7.53
2023-04-26T18:03:09.033Z,5.82
2023-04-26T18:05:38.615Z,5.57
2023-04-26T18:08:08.060Z,5.55
2023-04-26T18:10:37.481Z,5.28
2023-04-26T18:13:06.920Z,5.72
2023-04-26T18:15:36.457Z,8.73
2023-04-26T18:18:08.157Z,7.50
2023-04-26T18:20:38.421Z,9.70
2023-04-26T18:23:07.808Z,8.30
2023-04-26T18:25:37.217Z,10.90
2023-04-26T18:28:08.772Z,6.95
2023-04-26T18:30:38.247Z,7.50
2023-04-26T18:33:07.678Z,6.35
2023-04-26T18:35:37.125Z,12.02
2023-04-26T18:38:07.191Z,6.65
2023-04-26T18:40:36.595Z,10.18
2023-04-26T18:43:06.085Z,13.00
2023-04-26T18:45:35.567Z,6.60
2023-04-26T18:48:05.070Z,9.57
2023-04-26T18:50:34.460Z,7.57
2023-04-26T18:53:03.835Z,3.63
2023-04-26T18:55:33.215Z,5.40
2023-04-26T18:58:02.977Z,4.63
2023-04-26T19:00:32.613Z,5.93
2023-04-26T19:03:02.660Z,11.70
2023-04-26T19:05:32.213Z,5.13
2023-04-26T19:08:02.117Z,5.72
2023-04-26T19:10:31.615Z,10.07
2023-04-26T19:13:01.097Z,5.40
2023-04-26T19:15:30.470Z,4.38
2023-04-26T19:17:59.935Z,7.03
2023-04-26T19:20:29.705Z,6.07
2023-04-26T19:22:59.185Z,5.75
2023-04-26T19:25:30.579Z,6.72
2023-04-26T19:28:00.092Z,8.60
2023-04-26T19:30:29.616Z,7.65
2023-04-26T19:32:59.046Z,6.00
2023-04-26T19:35:28.454Z,6.40
2023-04-26T19:37:57.801Z,5.53
2023-04-26T19:40:27.190Z,4.88
2023-04-26T19:42:56.530Z,6.90
2023-04-26T19:45:25.957Z,6.32
2023-04-26T19:47:55.410Z,6.97
2023-04-26T19:50:24.770Z,7.80
2023-04-26T19:52:54.318Z,8.68
2023-04-26T19:55:23.795Z,19.80
2023-04-26T19:57:53.143Z,7.82
2023-04-26T20:00:22.602Z,11.15
2023-04-26T20:02:52.987Z,8.07
2023-04-26T20:05:22.580Z,10.27
2023-04-26T20:07:51.970Z,7.10
2023-04-26T20:10:21.945Z,5.25
2023-04-26T20:12:51.974Z,7.18
2023-04-26T20:15:21.594Z,4.55
2023-04-26T20:17:51.075Z,5.70
2023-04-26T20:20:20.500Z,9.40
2023-04-26T20:22:49.965Z,7.20
2023-04-26T20:25:20.039Z,4.72
2023-04-26T20:27:49.980Z,7.70
2023-04-26T20:30:19.388Z,6.35
2023-04-26T20:32:48.862Z,7.95
2023-04-26T20:35:18.347Z,6.38
2023-04-26T20:37:47.763Z,9.63
2023-04-26T20:40:17.133Z,8.02
2023-04-26T20:42:46.902Z,4.82
2023-04-26T20:45:16.714Z,6.55
2023-04-26T20:47:47.197Z,7.93
2023-04-26T20:50:17.191Z,7.75
2023-04-26T20:52:46.646Z,6.43
2023-04-26T20:55:17.089Z,6.70
2023-04-26T20:57:46.579Z,8.27
2023-04-26T21:00:16.288Z,7.03
2023-04-26T21:02:45.817Z,7.93
2023-04-26T21:05:15.327Z,10.48
2023-04-26T21:07:44.748Z,6.47
2023-04-26T21:10:14.303Z,7.40
2023-04-26T21:12:43.965Z,4.82
2023-04-26T21:15:13.639Z,7.72
2023-04-26T21:17:43.518Z,9.20
2023-04-26T21:20:13.320Z,4.50
2023-04-26T21:22:42.726Z,5.93
2023-04-26T21:25:13.709Z,7.85
2023-04-26T21:27:43.084Z,7.65
2023-04-26T21:30:12.652Z,9.15
2023-04-26T21:32:42.320Z,7.53
2023-04-26T21:35:12.174Z,7.47
2023-04-26T21:37:41.598Z,10.50
2023-04-26T21:40:11.471Z,8.70
2023-04-26T21:42:43.164Z,8.10
2023-04-26T21:45:14.268Z,8.10
2023-04-26T21:47:43.749Z,6.40
2023-04-26T21:50:14.415Z,4.50
2023-04-26T21:52:43.852Z,11.20
2023-04-26T21:55:13.432Z,8.65
2023-04-26T21:57:42.794Z,7.57
2023-04-26T22:00:13.370Z,7.30
2023-04-26T22:02:45.850Z,3.92
2023-04-26T22:05:15.350Z,11.68
2023-04-26T22:07:44.732Z,6.97
2023-04-26T22:10:14.103Z,5.22
2023-04-26T22:12:43.580Z,9.88
2023-04-26T22:15:13.199Z,7.53
2023-04-26T22:17:42.594Z,8.20
2023-04-26T22:20:12.276Z,7.18
2023-04-26T22:22:41.712Z,6.60
2023-04-26T22:25:11.382Z,8.20
2023-04-26T22:27:40.784Z,6.15
2023-04-26T22:30:24.129Z,8.32
2023-04-26T22:32:55.778Z,6.70
2023-04-26T22:35:25.809Z,9.60
2023-04-26T22:37:55.223Z,9.85
2023-04-26T22:40:24.577Z,8.02
2023-04-26T22:42:54.584Z,6.65
2023-04-26T22:45:23.977Z,6.03
2023-04-26T22:47:53.421Z,9.38
2023-04-26T22:50:22.948Z,8.23
2023-04-26T22:52:52.490Z,7.50
2023-04-26T22:55:22.003Z,6.68
2023-04-26T22:57:51.407Z,7.88
2023-04-26T23:00:22.095Z,5.93
2023-04-26T23:02:53.459Z,8.60
2023-04-26T23:05:22.893Z,6.82
2023-04-26T23:07:52.366Z,8.88
2023-04-26T23:10:21.806Z,12.18
2023-04-26T23:12:53.103Z,6.45
2023-04-26T23:15:22.522Z,6.47
2023-04-26T23:17:51.986Z,8.00
2023-04-26T23:20:21.447Z,9.25
2023-04-26T23:22:50.815Z,10.23
2023-04-26T23:25:20.308Z,10.43
2023-04-26T23:27:49.669Z,8.68
2023-04-26T23:30:19.313Z,6.63
2023-04-26T23:32:48.687Z,6.95
2023-04-26T23:35:18.086Z,7.32
2023-04-26T23:37:47.462Z,6.43
2023-04-26T23:40:17.064Z,7.57
2023-04-26T23:42:46.472Z,9.73
2023-04-26T23:45:16.195Z,8.27
2023-04-26T23:47:45.603Z,8.60
2023-04-26T23:50:14.940Z,7.68
2023-04-26T23:52:44.325Z,10.00
2023-04-26T23:55:14.010Z,7.07
2023-04-26T23:57:43.496Z,7.25
